Terminal Aerodrome Forecast
Issued by NWS

Home | Current Version | Previous Version | Text Only | Print | Product List | Glossary On
Versions: 1 2 3 4 5 6 7 8 9 10 11 12 13 14 15 16 17 18 19 20 21 22 23 24 25
000
FTUS41 KCAR 301507 AAA
TAFBHB
TAF AMD
KBHB 301507Z 3015/3112 19008KT P6SM BKN003
     FM301600 20012KT 6SM BR SCT010 BKN020
     FM310000 20014G21KT 3SM BR BKN008 WS020/22045KT
     FM310400 20014G21KT 1SM -SHRA BR BKN005 OVC010 WS020/22045KT
      AMD LTD TO CLD VIS AND WIND=

USA.gov is the U.S. government's official web portal to all federal, state and local government web resources and services.